モントリオール/トルドー の空港の天気 - METARとTAF

モントリオール・ピエール・エリオット・トルドー国際空港 ( CYUL / YUL ) - カナダ ケベック州モントリオール
飛行場実況気象(Metar)
観測時間05/26 12:00 EDT (05/26 16:00 UTC)
風向・風速北北東 8m/s 瞬間風速12m/s
視程9650m
天気現象弱い雨 もや
全天の8割程度の雲 雲底高度 400m
全天を覆う雲 雲底高度 550m
気温13℃
湿度88%
気圧1003.6hPa
METARCYUL 261600Z 03016G23KT 6SM -RA BR BKN013 OVC018 13/11 A2963 RMK CF6SC2 SLP036
過去の天気等 Google飛行場航空写真 Wunderground天気予報

過去48時間のMETAR

飛行場予報(TAF)
発表時間: 5/26 10:38 EDT (5/26 14:38 UTC)
予報対象時間: 26日11時 EDT ~ 27日8時 EDT
風向・風速北東 8m/s 瞬間風速 13m/s
視程10km以上
全天を覆う雲 雲底高度 910m
26日11時 EDT ~ 26日15時 EDT に一時的に
視程10km以上
天気現象弱い雨
全天を覆う雲 雲底高度 610m
26日15時 EDT から
風向・風速北北東 6m/s 瞬間風速 11m/s
視程10km以上
全天を覆う雲 雲底高度 910m
26日17時 EDT ~ 26日19時 EDT に徐々に
風向・風速北北東 4m/s
26日22時 EDT から
風向・風速西 3m/s
視程10km以上
少しの雲 雲底高度 1,520m
全天の8割程度の雲 雲底高度 3,050m
全天を覆う雲 雲底高度 6,100m
27日6時 EDT から
風向・風速西 3m/s
視程10km以上
少しの雲 雲底高度 3,660m
全天の8割程度の雲 雲底高度 6,100m
TAF CYUL 261438Z 2615/2712 04015G25KT P6SM OVC030
TEMPO 2615/2619 P6SM -RA OVC020
FM261900 03012G22KT P6SM OVC030
BECMG 2621/2623 02007KT
FM270200 27005KT P6SM FEW050 BKN100 OVC200
FM271000 27005KT P6SM FEW120 BKN200 RMK NXT FCST BY 261800Z